sensor_id;sensor_type;location;lat;lon;timestamp;temperature;humidity
49901;DHT22;35789;48.414;12.768;2024-03-17T00:00:00;7.4;99.9
49901;DHT22;35789;48.414;12.768;2024-03-17T00:05:00;7.3;99.9
49901;DHT22;35789;48.414;12.768;2024-03-17T00:10:00;7.3;99.9
49901;DHT22;35789;48.414;12.768;2024-03-17T00:15:00;7.3;99.9
49901;DHT22;35789;48.414;12.768;2024-03-17T00:20:00;7.3;99.9
49901;DHT22;35789;48.414;12.768;2024-03-17T00:25:00;7.3;99.9
49901;DHT22;35789;48.414;12.768;2024-03-17T00:30:00;7.3;99.9
49901;DHT22;35789;48.414;12.768;2024-03-17T00:35:00;7.3;99.9
49901;DHT22;35789;48.414;12.768;2024-03-17T00:40:00;7.3;99.9
49901;DHT22;35789;48.414;12.768;2024-03-17T00:45:04;7.3;99.9
49901;DHT22;35789;48.414;12.768;2024-03-17T00:50:00;7.3;99.9
49901;DHT22;35789;48.414;12.768;2024-03-17T00:55:00;7.4;99.9
49901;DHT22;35789;48.414;12.768;2024-03-17T01:00:00;7.3;99.9
49901;DHT22;35789;48.414;12.768;2024-03-17T01:05:00;7.3;99.9
49901;DHT22;35789;48.414;12.768;2024-03-17T01:10:00;7.3;99.9
49901;DHT22;35789;48.414;12.768;2024-03-17T01:15:02;7.3;99.9
49901;DHT22;35789;48.414;12.768;2024-03-17T01:20:00;7.2;99.9
49901;DHT22;35789;48.414;12.768;2024-03-17T01:25:00;7.3;99.9
49901;DHT22;35789;48.414;12.768;2024-03-17T01:30:00;7.2;99.9
49901;DHT22;35789;48.414;12.768;2024-03-17T01:35:00;7.2;99.9
49901;DHT22;35789;48.414;12.768;2024-03-17T01:40:00;7.1;99.9
49901;DHT22;35789;48.414;12.768;2024-03-17T01:45:00;7.0;99.9
49901;DHT22;35789;48.414;12.768;2024-03-17T01:50:00;7.0;99.9
49901;DHT22;35789;48.414;12.768;2024-03-17T01:55:00;7.0;99.9
49901;DHT22;35789;48.414;12.768;2024-03-17T02:00:00;6.9;99.9
49901;DHT22;35789;48.414;12.768;2024-03-17T02:05:00;6.9;99.9
49901;DHT22;35789;48.414;12.768;2024-03-17T02:10:00;6.9;99.9
49901;DHT22;35789;48.414;12.768;2024-03-17T02:15:00;6.9;99.9
49901;DHT22;35789;48.414;12.768;2024-03-17T02:20:00;6.9;99.9
49901;DHT22;35789;48.414;12.768;2024-03-17T02:25:00;6.9;99.9
49901;DHT22;35789;48.414;12.768;2024-03-17T02:30:00;6.9;99.9
49901;DHT22;35789;48.414;12.768;2024-03-17T02:35:00;6.8;99.9
49901;DHT22;35789;48.414;12.768;2024-03-17T02:40:00;6.8;99.9
49901;DHT22;35789;48.414;12.768;2024-03-17T02:45:00;6.8;99.9
49901;DHT22;35789;48.414;12.768;2024-03-17T02:50:00;6.8;99.9
49901;DHT22;35789;48.414;12.768;2024-03-17T02:55:00;6.8;99.9
49901;DHT22;35789;48.414;12.768;2024-03-17T03:00:00;6.6;99.9
49901;DHT22;35789;48.414;12.768;2024-03-17T03:05:00;6.5;99.9
49901;DHT22;35789;48.414;12.768;2024-03-17T03:10:00;6.3;99.9
49901;DHT22;35789;48.414;12.768;2024-03-17T03:15:00;6.3;99.9
49901;DHT22;35789;48.414;12.768;2024-03-17T03:20:00;6.3;99.9
49901;DHT22;35789;48.414;12.768;2024-03-17T03:25:00;6.4;99.9
49901;DHT22;35789;48.414;12.768;2024-03-17T03:30:00;6.5;99.9
49901;DHT22;35789;48.414;12.768;2024-03-17T03:35:00;6.5;99.9
49901;DHT22;35789;48.414;12.768;2024-03-17T03:40:00;6.4;99.9
49901;DHT22;35789;48.414;12.768;2024-03-17T03:45:00;6.3;99.9
49901;DHT22;35789;48.414;12.768;2024-03-17T03:50:00;6.3;99.9
49901;DHT22;35789;48.414;12.768;2024-03-17T03:55:00;6.4;99.9
49901;DHT22;35789;48.414;12.768;2024-03-17T04:00:00;6.4;99.9
49901;DHT22;35789;48.414;12.768;2024-03-17T04:05:00;6.3;99.9
49901;DHT22;35789;48.414;12.768;2024-03-17T04:10:00;6.3;99.9
49901;DHT22;35789;48.414;12.768;2024-03-17T04:15:00;6.3;99.9
49901;DHT22;35789;48.414;12.768;2024-03-17T04:20:00;6.3;99.9
49901;DHT22;35789;48.414;12.768;2024-03-17T04:25:00;6.2;99.9
49901;DHT22;35789;48.414;12.768;2024-03-17T04:30:00;6.1;99.9
49901;DHT22;35789;48.414;12.768;2024-03-17T04:35:00;6.0;99.9
49901;DHT22;35789;48.414;12.768;2024-03-17T04:40:00;6.0;99.9
49901;DHT22;35789;48.414;12.768;2024-03-17T04:45:00;6.1;99.9
49901;DHT22;35789;48.414;12.768;2024-03-17T04:50:00;6.0;99.9
49901;DHT22;35789;48.414;12.768;2024-03-17T04:55:00;6.0;99.9
49901;DHT22;35789;48.414;12.768;2024-03-17T05:00:00;6.0;99.9
49901;DHT22;35789;48.414;12.768;2024-03-17T05:05:00;5.9;99.9
49901;DHT22;35789;48.414;12.768;2024-03-17T05:10:00;5.9;99.9
49901;DHT22;35789;48.414;12.768;2024-03-17T05:15:00;5.8;99.9
49901;DHT22;35789;48.414;12.768;2024-03-17T05:20:00;5.8;99.9
49901;DHT22;35789;48.414;12.768;2024-03-17T05:25:00;5.8;99.9
49901;DHT22;35789;48.414;12.768;2024-03-17T05:30:00;5.8;99.9
49901;DHT22;35789;48.414;12.768;2024-03-17T05:35:00;5.9;99.9
49901;DHT22;35789;48.414;12.768;2024-03-17T05:40:00;5.8;99.9
49901;DHT22;35789;48.414;12.768;2024-03-17T05:45:00;5.8;99.9
49901;DHT22;35789;48.414;12.768;2024-03-17T05:50:00;5.8;99.9
49901;DHT22;35789;48.414;12.768;2024-03-17T05:55:00;5.8;99.9
49901;DHT22;35789;48.414;12.768;2024-03-17T06:00:00;5.8;99.9
49901;DHT22;35789;48.414;12.768;2024-03-17T06:05:00;5.9;99.9
49901;DHT22;35789;48.414;12.768;2024-03-17T06:10:00;5.9;99.9
49901;DHT22;35789;48.414;12.768;2024-03-17T06:15:01;5.9;99.9
49901;DHT22;35789;48.414;12.768;2024-03-17T06:20:00;6.0;99.9
49901;DHT22;35789;48.414;12.768;2024-03-17T06:25:00;6.1;99.9
49901;DHT22;35789;48.414;12.768;2024-03-17T06:30:00;6.1;99.9
49901;DHT22;35789;48.414;12.768;2024-03-17T06:35:01;6.2;99.9
49901;DHT22;35789;48.414;12.768;2024-03-17T06:40:00;6.3;99.9
49901;DHT22;35789;48.414;12.768;2024-03-17T06:45:00;6.4;99.9
49901;DHT22;35789;48.414;12.768;2024-03-17T06:50:00;6.5;99.9
49901;DHT22;35789;48.414;12.768;2024-03-17T06:55:00;6.6;99.9
49901;DHT22;35789;48.414;12.768;2024-03-17T07:00:00;6.7;99.9
49901;DHT22;35789;48.414;12.768;2024-03-17T07:05:00;6.7;99.9
49901;DHT22;35789;48.414;12.768;2024-03-17T07:10:00;6.8;99.9
49901;DHT22;35789;48.414;12.768;2024-03-17T07:15:00;6.8;99.9
49901;DHT22;35789;48.414;12.768;2024-03-17T07:20:00;6.8;99.9
49901;DHT22;35789;48.414;12.768;2024-03-17T07:25:00;6.8;99.9
49901;DHT22;35789;48.414;12.768;2024-03-17T07:30:00;6.9;99.9
49901;DHT22;35789;48.414;12.768;2024-03-17T07:35:00;6.9;99.9
49901;DHT22;35789;48.414;12.768;2024-03-17T07:40:00;6.8;99.9
49901;DHT22;35789;48.414;12.768;2024-03-17T07:45:00;6.8;99.9
49901;DHT22;35789;48.414;12.768;2024-03-17T07:50:00;6.8;99.9
49901;DHT22;35789;48.414;12.768;2024-03-17T07:55:00;6.7;99.9
49901;DHT22;35789;48.414;12.768;2024-03-17T08:00:00;6.7;99.9
49901;DHT22;35789;48.414;12.768;2024-03-17T08:05:00;6.6;99.9
49901;DHT22;35789;48.414;12.768;2024-03-17T08:10:00;6.6;99.9
49901;DHT22;35789;48.414;12.768;2024-03-17T08:15:00;6.8;99.9
49901;DHT22;35789;48.414;12.768;2024-03-17T08:20:00;7.0;99.9
49901;DHT22;35789;48.414;12.768;2024-03-17T08:25:00;7.1;99.9
49901;DHT22;35789;48.414;12.768;2024-03-17T08:30:00;7.1;99.9
49901;DHT22;35789;48.414;12.768;2024-03-17T08:35:00;7.2;99.9
49901;DHT22;35789;48.414;12.768;2024-03-17T08:40:00;7.3;99.9
49901;DHT22;35789;48.414;12.768;2024-03-17T08:45:00;7.4;99.9
49901;DHT22;35789;48.414;12.768;2024-03-17T08:50:00;7.6;99.9
49901;DHT22;35789;48.414;12.768;2024-03-17T08:55:00;7.6;99.9
49901;DHT22;35789;48.414;12.768;2024-03-17T09:00:00;7.6;99.9
49901;DHT22;35789;48.414;12.768;2024-03-17T09:05:00;7.7;99.9
49901;DHT22;35789;48.414;12.768;2024-03-17T09:10:00;7.7;99.9
49901;DHT22;35789;48.414;12.768;2024-03-17T09:15:00;7.7;99.9
49901;DHT22;35789;48.414;12.768;2024-03-17T09:20:00;7.7;99.9
49901;DHT22;35789;48.414;12.768;2024-03-17T09:25:00;7.8;99.9
49901;DHT22;35789;48.414;12.768;2024-03-17T09:30:00;7.8;99.9
49901;DHT22;35789;48.414;12.768;2024-03-17T09:35:00;7.8;99.9
49901;DHT22;35789;48.414;12.768;2024-03-17T09:40:00;7.9;99.9
49901;DHT22;35789;48.414;12.768;2024-03-17T09:45:00;8.2;99.9
49901;DHT22;35789;48.414;12.768;2024-03-17T09:50:00;8.2;99.9
49901;DHT22;35789;48.414;12.768;2024-03-17T09:55:01;8.2;99.9
49901;DHT22;35789;48.414;12.768;2024-03-17T10:00:00;8.4;99.9
49901;DHT22;35789;48.414;12.768;2024-03-17T10:05:00;8.6;99.2
49901;DHT22;35789;48.414;12.768;2024-03-17T10:10:10;8.7;99.9
49901;DHT22;35789;48.414;12.768;2024-03-17T10:15:00;8.8;99.9
49901;DHT22;35789;48.414;12.768;2024-03-17T10:25:00;8.8;99.9
49901;DHT22;35789;48.414;12.768;2024-03-17T10:30:00;8.7;99.9
49901;DHT22;35789;48.414;12.768;2024-03-17T10:35:00;8.9;99.3
49901;DHT22;35789;48.414;12.768;2024-03-17T10:40:00;9.1;99.9
49901;DHT22;35789;48.414;12.768;2024-03-17T10:45:00;9.3;99.1
49901;DHT22;35789;48.414;12.768;2024-03-17T10:50:00;9.7;98.6
49901;DHT22;35789;48.414;12.768;2024-03-17T10:55:01;10.1;98.5
49901;DHT22;35789;48.414;12.768;2024-03-17T11:00:00;10.3;97.7
49901;DHT22;35789;48.414;12.768;2024-03-17T11:05:00;10.5;96.6
49901;DHT22;35789;48.414;12.768;2024-03-17T11:10:00;10.7;98.3
49901;DHT22;35789;48.414;12.768;2024-03-17T11:40:00;10.4;99.3
49901;DHT22;35789;48.414;12.768;2024-03-17T11:45:01;10.4;98.6
49901;DHT22;35789;48.414;12.768;2024-03-17T11:50:01;10.6;97.7
49901;DHT22;35789;48.414;12.768;2024-03-17T11:55:00;10.6;99.2
49901;DHT22;35789;48.414;12.768;2024-03-17T12:00:00;10.4;99.0
49901;DHT22;35789;48.414;12.768;2024-03-17T12:05:00;10.1;99.3
49901;DHT22;35789;48.414;12.768;2024-03-17T12:10:00;10.3;99.8
49901;DHT22;35789;48.414;12.768;2024-03-17T12:15:00;10.8;99.9
49901;DHT22;35789;48.414;12.768;2024-03-17T12:20:00;11.0;98.3
49901;DHT22;35789;48.414;12.768;2024-03-17T12:25:00;11.2;98.8
49901;DHT22;35789;48.414;12.768;2024-03-17T12:30:00;11.3;98.2
49901;DHT22;35789;48.414;12.768;2024-03-17T12:35:00;11.6;96.2
49901;DHT22;35789;48.414;12.768;2024-03-17T12:40:00;11.7;98.7
49901;DHT22;35789;48.414;12.768;2024-03-17T12:45:00;11.7;98.2
49901;DHT22;35789;48.414;12.768;2024-03-17T12:50:00;11.6;99.0
49901;DHT22;35789;48.414;12.768;2024-03-17T12:55:01;11.6;96.6
49901;DHT22;35789;48.414;12.768;2024-03-17T13:00:00;11.5;95.5
49901;DHT22;35789;48.414;12.768;2024-03-17T13:10:00;11.3;98.6
49901;DHT22;35789;48.414;12.768;2024-03-17T13:15:00;11.3;98.5
49901;DHT22;35789;48.414;12.768;2024-03-17T13:20:00;11.3;98.3
49901;DHT22;35789;48.414;12.768;2024-03-17T13:25:00;11.2;98.5
49901;DHT22;35789;48.414;12.768;2024-03-17T13:30:00;11.3;96.6
49901;DHT22;35789;48.414;12.768;2024-03-17T13:35:00;11.3;97.6
49901;DHT22;35789;48.414;12.768;2024-03-17T13:40:00;11.5;94.2
49901;DHT22;35789;48.414;12.768;2024-03-17T13:45:00;11.7;95.4
49901;DHT22;35789;48.414;12.768;2024-03-17T13:50:00;11.6;96.2
49901;DHT22;35789;48.414;12.768;2024-03-17T13:55:00;11.6;95.2
49901;DHT22;35789;48.414;12.768;2024-03-17T14:00:00;11.5;96.9
49901;DHT22;35789;48.414;12.768;2024-03-17T14:05:00;11.7;95.8
49901;DHT22;35789;48.414;12.768;2024-03-17T14:10:00;11.7;97.8
49901;DHT22;35789;48.414;12.768;2024-03-17T14:15:00;11.8;96.5
49901;DHT22;35789;48.414;12.768;2024-03-17T14:20:00;11.8;97.3
49901;DHT22;35789;48.414;12.768;2024-03-17T14:25:00;11.6;97.6
49901;DHT22;35789;48.414;12.768;2024-03-17T14:30:00;11.7;97.1
49901;DHT22;35789;48.414;12.768;2024-03-17T14:35:00;11.6;98.1
49901;DHT22;35789;48.414;12.768;2024-03-17T14:40:00;11.6;97.2
49901;DHT22;35789;48.414;12.768;2024-03-17T14:45:00;11.4;98.2
49901;DHT22;35789;48.414;12.768;2024-03-17T14:50:00;11.4;98.4
49901;DHT22;35789;48.414;12.768;2024-03-17T14:55:00;11.5;98.0
49901;DHT22;35789;48.414;12.768;2024-03-17T15:00:00;11.6;97.0
49901;DHT22;35789;48.414;12.768;2024-03-17T15:05:00;11.6;98.5
49901;DHT22;35789;48.414;12.768;2024-03-17T15:10:00;11.6;97.9
49901;DHT22;35789;48.414;12.768;2024-03-17T15:15:00;11.6;96.3
49901;DHT22;35789;48.414;12.768;2024-03-17T15:20:00;11.6;97.1
49901;DHT22;35789;48.414;12.768;2024-03-17T15:25:00;11.5;95.6
49901;DHT22;35789;48.414;12.768;2024-03-17T15:30:00;11.4;98.5
49901;DHT22;35789;48.414;12.768;2024-03-17T15:35:00;11.2;97.2
49901;DHT22;35789;48.414;12.768;2024-03-17T15:40:00;11.1;99.6
49901;DHT22;35789;48.414;12.768;2024-03-17T15:45:00;11.0;99.0
49901;DHT22;35789;48.414;12.768;2024-03-17T15:50:00;11.0;98.0
49901;DHT22;35789;48.414;12.768;2024-03-17T15:55:00;11.0;99.2
49901;DHT22;35789;48.414;12.768;2024-03-17T16:00:00;10.9;98.8
49901;DHT22;35789;48.414;12.768;2024-03-17T16:05:00;10.9;98.8
49901;DHT22;35789;48.414;12.768;2024-03-17T16:10:00;10.8;99.9
49901;DHT22;35789;48.414;12.768;2024-03-17T16:15:00;10.7;99.9
49901;DHT22;35789;48.414;12.768;2024-03-17T16:20:00;10.5;99.9
49901;DHT22;35789;48.414;12.768;2024-03-17T16:25:00;10.4;98.9
49901;DHT22;35789;48.414;12.768;2024-03-17T16:30:00;10.4;98.7
49901;DHT22;35789;48.414;12.768;2024-03-17T16:35:00;10.3;98.7
49901;DHT22;35789;48.414;12.768;2024-03-17T16:40:00;10.2;98.4
49901;DHT22;35789;48.414;12.768;2024-03-17T16:45:03;10.1;99.0
49901;DHT22;35789;48.414;12.768;2024-03-17T16:50:01;9.9;99.8
49901;DHT22;35789;48.414;12.768;2024-03-17T16:55:00;9.9;99.8
49901;DHT22;35789;48.414;12.768;2024-03-17T17:00:00;9.7;99.9
49901;DHT22;35789;48.414;12.768;2024-03-17T17:05:00;9.7;99.9
49901;DHT22;35789;48.414;12.768;2024-03-17T17:10:00;9.6;99.9
49901;DHT22;35789;48.414;12.768;2024-03-17T17:15:00;9.4;99.9
49901;DHT22;35789;48.414;12.768;2024-03-17T17:20:00;9.3;99.9
49901;DHT22;35789;48.414;12.768;2024-03-17T17:25:00;9.2;99.9
49901;DHT22;35789;48.414;12.768;2024-03-17T17:30:00;9.2;99.9
49901;DHT22;35789;48.414;12.768;2024-03-17T17:35:00;9.1;99.9
49901;DHT22;35789;48.414;12.768;2024-03-17T17:40:00;9.0;99.9
49901;DHT22;35789;48.414;12.768;2024-03-17T17:45:00;8.9;99.9
49901;DHT22;35789;48.414;12.768;2024-03-17T17:50:00;8.8;99.9
49901;DHT22;35789;48.414;12.768;2024-03-17T17:55:00;8.8;99.9
49901;DHT22;35789;48.414;12.768;2024-03-17T18:00:00;8.7;99.9
49901;DHT22;35789;48.414;12.768;2024-03-17T18:05:00;8.6;99.9
49901;DHT22;35789;48.414;12.768;2024-03-17T18:10:00;8.7;99.9
49901;DHT22;35789;48.414;12.768;2024-03-17T18:15:00;8.7;99.9
49901;DHT22;35789;48.414;12.768;2024-03-17T18:20:00;8.7;99.9
49901;DHT22;35789;48.414;12.768;2024-03-17T18:25:00;8.6;99.9
49901;DHT22;35789;48.414;12.768;2024-03-17T18:30:00;8.6;99.9
49901;DHT22;35789;48.414;12.768;2024-03-17T18:35:00;8.6;99.9
49901;DHT22;35789;48.414;12.768;2024-03-17T18:40:00;8.6;99.9
49901;DHT22;35789;48.414;12.768;2024-03-17T18:45:00;8.6;99.9
49901;DHT22;35789;48.414;12.768;2024-03-17T18:50:00;8.6;99.9
49901;DHT22;35789;48.414;12.768;2024-03-17T18:55:00;8.6;99.9
49901;DHT22;35789;48.414;12.768;2024-03-17T19:00:00;8.6;99.9
49901;DHT22;35789;48.414;12.768;2024-03-17T19:05:00;8.5;99.9
49901;DHT22;35789;48.414;12.768;2024-03-17T19:10:00;8.5;99.9
49901;DHT22;35789;48.414;12.768;2024-03-17T19:15:00;8.5;99.9
49901;DHT22;35789;48.414;12.768;2024-03-17T19:20:01;8.5;99.9
49901;DHT22;35789;48.414;12.768;2024-03-17T19:25:00;8.5;99.9
49901;DHT22;35789;48.414;12.768;2024-03-17T19:30:00;8.5;99.9
49901;DHT22;35789;48.414;12.768;2024-03-17T19:35:00;8.5;99.9
49901;DHT22;35789;48.414;12.768;2024-03-17T19:40:00;8.5;99.9
49901;DHT22;35789;48.414;12.768;2024-03-17T19:45:00;8.4;99.9
49901;DHT22;35789;48.414;12.768;2024-03-17T19:50:00;8.4;99.9
49901;DHT22;35789;48.414;12.768;2024-03-17T19:55:00;8.3;99.9
49901;DHT22;35789;48.414;12.768;2024-03-17T20:00:00;8.3;99.9
49901;DHT22;35789;48.414;12.768;2024-03-17T20:05:00;8.2;99.9
49901;DHT22;35789;48.414;12.768;2024-03-17T20:10:00;8.2;99.9
49901;DHT22;35789;48.414;12.768;2024-03-17T20:15:00;8.1;99.9
49901;DHT22;35789;48.414;12.768;2024-03-17T20:20:00;8.1;99.9
49901;DHT22;35789;48.414;12.768;2024-03-17T20:25:00;8.1;99.9
49901;DHT22;35789;48.414;12.768;2024-03-17T20:30:00;8.1;99.9
49901;DHT22;35789;48.414;12.768;2024-03-17T20:35:00;8.1;99.9
49901;DHT22;35789;48.414;12.768;2024-03-17T20:40:00;8.0;99.9
49901;DHT22;35789;48.414;12.768;2024-03-17T20:45:01;8.0;99.9
49901;DHT22;35789;48.414;12.768;2024-03-17T20:50:00;8.1;99.9
49901;DHT22;35789;48.414;12.768;2024-03-17T20:55:00;8.1;99.9
49901;DHT22;35789;48.414;12.768;2024-03-17T21:00:00;8.1;99.9
49901;DHT22;35789;48.414;12.768;2024-03-17T21:05:00;8.1;99.9
49901;DHT22;35789;48.414;12.768;2024-03-17T21:10:00;8.0;99.9
49901;DHT22;35789;48.414;12.768;2024-03-17T21:15:00;8.0;99.9
49901;DHT22;35789;48.414;12.768;2024-03-17T21:20:01;7.9;99.9
49901;DHT22;35789;48.414;12.768;2024-03-17T21:25:00;7.9;99.9
49901;DHT22;35789;48.414;12.768;2024-03-17T21:30:00;7.8;99.9
49901;DHT22;35789;48.414;12.768;2024-03-17T21:35:00;7.7;99.9
49901;DHT22;35789;48.414;12.768;2024-03-17T21:40:00;7.7;99.9
49901;DHT22;35789;48.414;12.768;2024-03-17T21:45:00;7.6;99.9
49901;DHT22;35789;48.414;12.768;2024-03-17T21:50:00;7.6;99.9
49901;DHT22;35789;48.414;12.768;2024-03-17T21:55:00;7.5;99.9
49901;DHT22;35789;48.414;12.768;2024-03-17T22:00:00;7.5;99.9
49901;DHT22;35789;48.414;12.768;2024-03-17T22:05:00;7.4;99.9
49901;DHT22;35789;48.414;12.768;2024-03-17T22:10:00;7.3;99.9
49901;DHT22;35789;48.414;12.768;2024-03-17T22:15:00;7.3;99.9
49901;DHT22;35789;48.414;12.768;2024-03-17T22:20:00;7.2;99.9
49901;DHT22;35789;48.414;12.768;2024-03-17T22:25:00;7.0;99.9
49901;DHT22;35789;48.414;12.768;2024-03-17T22:30:00;7.0;99.9
49901;DHT22;35789;48.414;12.768;2024-03-17T22:35:00;6.9;99.9
49901;DHT22;35789;48.414;12.768;2024-03-17T22:40:00;6.9;99.9
49901;DHT22;35789;48.414;12.768;2024-03-17T22:45:00;6.9;99.9
49901;DHT22;35789;48.414;12.768;2024-03-17T22:50:00;6.8;99.9
49901;DHT22;35789;48.414;12.768;2024-03-17T22:55:00;6.8;99.9
49901;DHT22;35789;48.414;12.768;2024-03-17T23:00:00;6.9;99.9
49901;DHT22;35789;48.414;12.768;2024-03-17T23:05:00;6.9;99.9
49901;DHT22;35789;48.414;12.768;2024-03-17T23:10:00;6.9;99.9
49901;DHT22;35789;48.414;12.768;2024-03-17T23:15:00;7.0;99.9
49901;DHT22;35789;48.414;12.768;2024-03-17T23:20:00;7.1;99.9
49901;DHT22;35789;48.414;12.768;2024-03-17T23:25:00;7.1;99.9
49901;DHT22;35789;48.414;12.768;2024-03-17T23:30:00;7.1;99.9
49901;DHT22;35789;48.414;12.768;2024-03-17T23:35:00;7.2;99.9
49901;DHT22;35789;48.414;12.768;2024-03-17T23:40:00;7.2;99.9
49901;DHT22;35789;48.414;12.768;2024-03-17T23:45:00;7.2;99.9
49901;DHT22;35789;48.414;12.768;2024-03-17T23:50:00;7.2;99.9
49901;DHT22;35789;48.414;12.768;2024-03-17T23:55:00;7.1;99.9
